Terminal Aerodrome Forecast
Issued by NWS

Home | Current Version | Previous Version | Text Only | Print | Product List | Glossary On
Versions: 1 2 3 4 5 6 7 8 9 10 11 12 13 14 15 16 17 18 19 20 21 22 23 24 25 26 27 28
833
FTUS43 KLSX 220247 AAB
TAFCPS
TAF AMD
KCPS 220247Z 2203/2224 17010KT P6SM VCSH OVC008
     FM220600 17012G18KT 6SM -RA VCTS OVC015CB
      TEMPO 2207/2211 3SM SHRA BR OVC010
     FM221200 18010KT P6SM BKN090
     FM221400 20013G22KT P6SM SCT250
     FM222000 23015G25KT P6SM BKN035=

USA.gov is the U.S. government's official web portal to all federal, state and local government web resources and services.